aviador You're here:

KRIW Decoded Metar

RIVERTON in WY, USA
Report Time2017-09-24 00:53:00
UTC Time2017-09-24 01:29:28
Flight Rules vfr VFR
Wind050° at 08 kt
W.Decomp.*RWY 01: 7.0 kt HW 3.9 kt RCW
RWY 10: 3.9 kt HW 7 kt LCW
W.Rank050° ranks 10
Current wind is above 050° avg. (6.9)
Visibility9999 m
Phenomena:Light Rain
Clouds:Overcast 034 Hf
Expected CloudBase > 400 ft AGL from Temp-Dew spread
Ceiling3,400 ft
Temp04°C (ISA 0)
Dew Point03°C (93% RH)
AAT-0.4°C
QNH1017 hPa
Density Alt5,558 ft
Elevation5,568 ft
Report Wrong Elevation
Raw Report
KRIW 240053Z AUTO 05008KT 10SM -RA OVC034 04/03 A3002 RMK AO2
RAB20 SLP164 P0000 T00440033=

Extra information for KRIW:More info

Metar Taf Metar & Taf Last 4 Metars F.Rules Stats Wind Profile Meteogram Temp Stats Airport Information Weather charts Add Link Nearby VenuesMetar ALERT Operation Metar Decoded Social comments

AIRNAV info for KRIW